sensor_id;sensor_type;location;lat;lon;timestamp;pressure;altitude;pressure_sealevel;temperature;humidity
5574;BME280;2563;52.242;7.956;2024-02-26T00:01:01;98724.69;;;2.08;100.00
5574;BME280;2563;52.242;7.956;2024-02-26T00:03:27;98712.84;;;2.06;100.00
5574;BME280;2563;52.242;7.956;2024-02-26T00:05:52;98708.72;;;2.02;100.00
5574;BME280;2563;52.242;7.956;2024-02-26T00:08:18;98702.94;;;1.95;100.00
5574;BME280;2563;52.242;7.956;2024-02-26T00:10:43;98680.13;;;1.94;100.00
5574;BME280;2563;52.242;7.956;2024-02-26T00:13:08;98659.81;;;1.94;100.00
5574;BME280;2563;52.242;7.956;2024-02-26T00:15:33;98649.03;;;1.84;100.00
5574;BME280;2563;52.242;7.956;2024-02-26T00:18:00;98645.72;;;1.80;100.00
5574;BME280;2563;52.242;7.956;2024-02-26T00:20:26;98646.72;;;1.73;100.00
5574;BME280;2563;52.242;7.956;2024-02-26T00:22:51;98627.25;;;1.74;100.00
5574;BME280;2563;52.242;7.956;2024-02-26T00:25:17;98609.41;;;1.78;100.00
5574;BME280;2563;52.242;7.956;2024-02-26T00:27:42;98609.47;;;1.75;100.00
5574;BME280;2563;52.242;7.956;2024-02-26T00:30:09;98593.63;;;1.64;100.00
5574;BME280;2563;52.242;7.956;2024-02-26T00:32:35;98588.84;;;1.50;100.00
5574;BME280;2563;52.242;7.956;2024-02-26T00:35:00;98573.66;;;1.48;100.00
5574;BME280;2563;52.242;7.956;2024-02-26T00:37:26;98559.97;;;1.57;100.00
5574;BME280;2563;52.242;7.956;2024-02-26T00:39:51;98549.97;;;1.51;100.00
5574;BME280;2563;52.242;7.956;2024-02-26T00:42:18;98535.41;;;1.61;100.00
5574;BME280;2563;52.242;7.956;2024-02-26T00:44:43;98537.06;;;1.62;100.00
5574;BME280;2563;52.242;7.956;2024-02-26T00:47:09;98530.16;;;1.68;100.00
5574;BME280;2563;52.242;7.956;2024-02-26T00:49:34;98521.66;;;1.71;100.00
5574;BME280;2563;52.242;7.956;2024-02-26T00:51:59;98513.91;;;1.77;100.00
5574;BME280;2563;52.242;7.956;2024-02-26T00:54:25;98505.47;;;1.77;100.00
5574;BME280;2563;52.242;7.956;2024-02-26T00:56:50;98501.38;;;1.71;100.00
5574;BME280;2563;52.242;7.956;2024-02-26T00:59:15;98494.63;;;1.70;100.00
5574;BME280;2563;52.242;7.956;2024-02-26T01:01:41;98487.13;;;1.65;100.00
5574;BME280;2563;52.242;7.956;2024-02-26T01:04:06;98474.28;;;1.73;100.00
5574;BME280;2563;52.242;7.956;2024-02-26T01:06:31;98484.34;;;1.76;100.00
5574;BME280;2563;52.242;7.956;2024-02-26T01:08:57;98482.69;;;1.75;100.00
5574;BME280;2563;52.242;7.956;2024-02-26T01:11:22;98482.00;;;1.67;100.00
5574;BME280;2563;52.242;7.956;2024-02-26T01:13:47;98472.47;;;1.78;100.00
5574;BME280;2563;52.242;7.956;2024-02-26T01:16:13;98464.69;;;1.86;100.00
5574;BME280;2563;52.242;7.956;2024-02-26T01:18:38;98474.13;;;1.79;100.00
5574;BME280;2563;52.242;7.956;2024-02-26T01:21:04;98482.41;;;1.87;100.00
5574;BME280;2563;52.242;7.956;2024-02-26T01:23:33;98477.38;;;1.84;100.00
5574;BME280;2563;52.242;7.956;2024-02-26T01:25:59;98483.44;;;1.79;100.00
5574;BME280;2563;52.242;7.956;2024-02-26T01:28:24;98486.28;;;1.65;100.00
5574;BME280;2563;52.242;7.956;2024-02-26T01:30:49;98491.19;;;1.73;100.00
5574;BME280;2563;52.242;7.956;2024-02-26T01:33:15;98501.38;;;1.71;100.00
5574;BME280;2563;52.242;7.956;2024-02-26T01:35:40;98499.84;;;1.62;100.00
5574;BME280;2563;52.242;7.956;2024-02-26T01:38:05;98494.22;;;1.49;100.00
5574;BME280;2563;52.242;7.956;2024-02-26T01:40:31;98498.41;;;1.51;100.00
5574;BME280;2563;52.242;7.956;2024-02-26T01:42:56;98497.38;;;1.61;100.00
5574;BME280;2563;52.242;7.956;2024-02-26T01:45:21;98498.91;;;1.68;100.00
5574;BME280;2563;52.242;7.956;2024-02-26T01:47:52;98488.59;;;1.76;100.00
5574;BME280;2563;52.242;7.956;2024-02-26T01:50:19;98492.56;;;1.87;100.00
5574;BME280;2563;52.242;7.956;2024-02-26T01:52:46;98482.41;;;1.87;100.00
5574;BME280;2563;52.242;7.956;2024-02-26T01:55:13;98483.13;;;1.92;100.00
5574;BME280;2563;52.242;7.956;2024-02-26T01:57:44;98486.59;;;1.90;100.00
5574;BME280;2563;52.242;7.956;2024-02-26T02:00:11;98501.03;;;1.86;100.00
5574;BME280;2563;52.242;7.956;2024-02-26T02:02:37;98496.09;;;1.80;100.00
5574;BME280;2563;52.242;7.956;2024-02-26T02:05:04;98491.03;;;1.80;100.00
5574;BME280;2563;52.242;7.956;2024-02-26T02:07:31;98498.81;;;1.73;100.00
5574;BME280;2563;52.242;7.956;2024-02-26T02:09:56;98499.81;;;1.65;100.00
5574;BME280;2563;52.242;7.956;2024-02-26T02:12:22;98500.66;;;1.64;100.00
5574;BME280;2563;52.242;7.956;2024-02-26T02:14:47;98513.50;;;1.57;100.00
5574;BME280;2563;52.242;7.956;2024-02-26T02:17:13;98520.38;;;1.52;100.00
5574;BME280;2563;52.242;7.956;2024-02-26T02:19:38;98520.38;;;1.52;100.00
5574;BME280;2563;52.242;7.956;2024-02-26T02:22:04;98533.88;;;1.51;100.00
5574;BME280;2563;52.242;7.956;2024-02-26T02:24:29;98541.53;;;1.49;100.00
5574;BME280;2563;52.242;7.956;2024-02-26T02:26:55;98538.97;;;1.51;100.00
5574;BME280;2563;52.242;7.956;2024-02-26T02:29:21;98537.94;;;1.61;100.00
5574;BME280;2563;52.242;7.956;2024-02-26T02:31:46;98542.91;;;1.65;100.00
5574;BME280;2563;52.242;7.956;2024-02-26T02:34:12;98541.94;;;1.71;100.00
5574;BME280;2563;52.242;7.956;2024-02-26T02:36:49;98546.03;;;1.77;100.00
5574;BME280;2563;52.242;7.956;2024-02-26T02:39:15;98553.56;;;1.81;100.00
5574;BME280;2563;52.242;7.956;2024-02-26T02:41:40;98560.31;;;1.82;100.00
5574;BME280;2563;52.242;7.956;2024-02-26T02:44:06;98564.59;;;1.79;100.00
5574;BME280;2563;52.242;7.956;2024-02-26T02:46:31;98565.44;;;1.79;100.00
5574;BME280;2563;52.242;7.956;2024-02-26T02:48:58;98577.09;;;1.88;100.00
5574;BME280;2563;52.242;7.956;2024-02-26T02:51:24;98575.44;;;1.85;100.00
5574;BME280;2563;52.242;7.956;2024-02-26T02:53:49;98578.00;;;1.85;100.00
5574;BME280;2563;52.242;7.956;2024-02-26T02:56:14;98578.78;;;1.87;100.00
5574;BME280;2563;52.242;7.956;2024-02-26T02:58:40;98582.16;;;1.88;100.00
5574;BME280;2563;52.242;7.956;2024-02-26T03:01:05;98588.94;;;1.87;100.00
5574;BME280;2563;52.242;7.956;2024-02-26T03:03:30;98593.22;;;1.84;100.00
5574;BME280;2563;52.242;7.956;2024-02-26T03:05:56;98604.16;;;1.87;100.00
5574;BME280;2563;52.242;7.956;2024-02-26T03:08:21;98605.00;;;1.88;100.00
5574;BME280;2563;52.242;7.956;2024-02-26T03:10:47;98607.44;;;1.92;100.00
5574;BME280;2563;52.242;7.956;2024-02-26T03:13:13;98599.63;;;2.02;100.00
5574;BME280;2563;52.242;7.956;2024-02-26T03:15:39;98598.63;;;2.09;100.00
5574;BME280;2563;52.242;7.956;2024-02-26T03:18:04;98596.03;;;2.12;100.00
5574;BME280;2563;52.242;7.956;2024-02-26T03:20:29;98601.72;;;2.23;100.00
5574;BME280;2563;52.242;7.956;2024-02-26T03:22:55;98594.81;;;2.28;100.00
5574;BME280;2563;52.242;7.956;2024-02-26T03:25:20;98604.88;;;2.33;100.00
5574;BME280;2563;52.242;7.956;2024-02-26T03:27:45;98602.28;;;2.36;100.00
5574;BME280;2563;52.242;7.956;2024-02-26T03:30:11;98601.28;;;2.42;100.00
5574;BME280;2563;52.242;7.956;2024-02-26T03:32:36;98601.16;;;2.48;100.00
5574;BME280;2563;52.242;7.956;2024-02-26T03:35:02;98599.41;;;2.50;100.00
5574;BME280;2563;52.242;7.956;2024-02-26T03:37:27;98587.56;;;2.49;100.00
5574;BME280;2563;52.242;7.956;2024-02-26T03:39:53;98587.56;;;2.49;100.00
5574;BME280;2563;52.242;7.956;2024-02-26T03:42:18;98597.72;;;2.49;100.00
5574;BME280;2563;52.242;7.956;2024-02-26T03:44:44;98589.25;;;2.50;100.00
5574;BME280;2563;52.242;7.956;2024-02-26T03:47:09;98586.72;;;2.50;100.00
5574;BME280;2563;52.242;7.956;2024-02-26T03:49:35;98583.31;;;2.51;100.00
5574;BME280;2563;52.242;7.956;2024-02-26T03:52:00;98583.19;;;2.55;100.00
5574;BME280;2563;52.242;7.956;2024-02-26T03:54:25;98585.72;;;2.57;100.00
5574;BME280;2563;52.242;7.956;2024-02-26T03:56:51;98594.13;;;2.59;100.00
5574;BME280;2563;52.242;7.956;2024-02-26T03:59:16;98579.75;;;2.58;100.00
5574;BME280;2563;52.242;7.956;2024-02-26T04:01:48;98584.03;;;2.56;100.00
5574;BME280;2563;52.242;7.956;2024-02-26T04:04:13;98590.78;;;2.57;100.00
5574;BME280;2563;52.242;7.956;2024-02-26T04:06:39;98596.69;;;2.58;100.00
5574;BME280;2563;52.242;7.956;2024-02-26T04:09:04;98593.31;;;2.59;100.00
5574;BME280;2563;52.242;7.956;2024-02-26T04:11:29;98588.97;;;2.62;100.00
5574;BME280;2563;52.242;7.956;2024-02-26T04:13:55;98586.31;;;2.67;100.00
5574;BME280;2563;52.242;7.956;2024-02-26T04:16:20;98588.75;;;2.71;100.00
5574;BME280;2563;52.242;7.956;2024-02-26T04:18:46;98584.47;;;2.73;100.00
5574;BME280;2563;52.242;7.956;2024-02-26T04:21:11;98582.69;;;2.77;100.00
5574;BME280;2563;52.242;7.956;2024-02-26T04:23:36;98576.56;;;2.86;100.00
5574;BME280;2563;52.242;7.956;2024-02-26T04:26:02;98578.16;;;2.90;100.00
5574;BME280;2563;52.242;7.956;2024-02-26T04:28:27;98581.53;;;2.90;100.00
5574;BME280;2563;52.242;7.956;2024-02-26T04:30:55;98584.88;;;2.92;100.00
5574;BME280;2563;52.242;7.956;2024-02-26T04:33:21;98583.97;;;2.93;100.00
5574;BME280;2563;52.242;7.956;2024-02-26T04:35:47;98593.22;;;2.96;100.00
5574;BME280;2563;52.242;7.956;2024-02-26T04:38:12;98595.81;;;2.94;100.00
5574;BME280;2563;52.242;7.956;2024-02-26T04:40:37;98587.25;;;2.98;100.00
5574;BME280;2563;52.242;7.956;2024-02-26T04:43:03;98593.91;;;3.03;100.00
5574;BME280;2563;52.242;7.956;2024-02-26T04:45:28;98597.94;;;3.11;100.00
5574;BME280;2563;52.242;7.956;2024-02-26T04:47:54;98600.28;;;3.19;100.00
5574;BME280;2563;52.242;7.956;2024-02-26T04:50:19;98595.13;;;3.22;100.00
5574;BME280;2563;52.242;7.956;2024-02-26T04:52:44;98600.09;;;3.25;100.00
5574;BME280;2563;52.242;7.956;2024-02-26T04:55:10;98601.72;;;3.28;100.00
5574;BME280;2563;52.242;7.956;2024-02-26T04:57:35;98605.97;;;3.29;100.00
5574;BME280;2563;52.242;7.956;2024-02-26T05:00:00;98604.13;;;3.34;100.00
5574;BME280;2563;52.242;7.956;2024-02-26T05:02:26;98620.22;;;3.34;100.00
5574;BME280;2563;52.242;7.956;2024-02-26T05:04:52;98623.56;;;3.36;100.00
5574;BME280;2563;52.242;7.956;2024-02-26T05:07:17;98629.41;;;3.40;100.00
5574;BME280;2563;52.242;7.956;2024-02-26T05:09:44;98631.88;;;3.43;100.00
5574;BME280;2563;52.242;7.956;2024-02-26T05:12:09;98649.56;;;3.46;100.00
5574;BME280;2563;52.242;7.956;2024-02-26T05:14:35;98654.56;;;3.49;100.00
5574;BME280;2563;52.242;7.956;2024-02-26T05:17:00;98656.72;;;3.65;100.00
5574;BME280;2563;52.242;7.956;2024-02-26T05:19:26;98675.06;;;3.76;100.00
5574;BME280;2563;52.242;7.956;2024-02-26T05:21:51;98692.88;;;3.76;100.00
5574;BME280;2563;52.242;7.956;2024-02-26T05:24:16;98712.41;;;3.75;100.00
5574;BME280;2563;52.242;7.956;2024-02-26T05:26:43;98718.31;;;3.76;100.00
5574;BME280;2563;52.242;7.956;2024-02-26T05:29:08;98743.00;;;3.72;100.00
5574;BME280;2563;52.242;7.956;2024-02-26T05:31:34;98767.66;;;3.70;100.00
5574;BME280;2563;52.242;7.956;2024-02-26T05:33:59;98775.28;;;3.70;100.00
5574;BME280;2563;52.242;7.956;2024-02-26T05:36:27;98786.25;;;3.74;100.00
5574;BME280;2563;52.242;7.956;2024-02-26T05:38:54;98806.59;;;3.74;100.00
5574;BME280;2563;52.242;7.956;2024-02-26T05:41:20;98815.97;;;3.72;100.00
5574;BME280;2563;52.242;7.956;2024-02-26T05:43:51;98843.97;;;3.72;100.00
5574;BME280;2563;52.242;7.956;2024-02-26T05:46:17;98854.13;;;3.72;100.00
5574;BME280;2563;52.242;7.956;2024-02-26T05:48:44;98865.16;;;3.71;100.00
5574;BME280;2563;52.242;7.956;2024-02-26T05:51:09;98882.13;;;3.72;100.00
5574;BME280;2563;52.242;7.956;2024-02-26T05:53:34;98890.56;;;3.74;100.00
5574;BME280;2563;52.242;7.956;2024-02-26T05:56:00;98901.56;;;3.74;100.00
5574;BME280;2563;52.242;7.956;2024-02-26T05:58:25;98908.28;;;3.77;100.00
5574;BME280;2563;52.242;7.956;2024-02-26T06:00:50;98932.84;;;3.78;100.00
5574;BME280;2563;52.242;7.956;2024-02-26T06:03:16;98948.91;;;3.80;100.00
5574;BME280;2563;52.242;7.956;2024-02-26T06:05:42;98976.06;;;3.81;100.00
5574;BME280;2563;52.242;7.956;2024-02-26T06:08:07;98998.06;;;3.82;100.00
5574;BME280;2563;52.242;7.956;2024-02-26T06:10:33;99010.81;;;3.80;100.00
5574;BME280;2563;52.242;7.956;2024-02-26T06:12:58;99028.63;;;3.80;100.00
5574;BME280;2563;52.242;7.956;2024-02-26T06:15:24;99038.03;;;3.78;100.00
5574;BME280;2563;52.242;7.956;2024-02-26T06:17:49;99054.97;;;3.79;100.00
5574;BME280;2563;52.242;7.956;2024-02-26T06:20:15;99054.97;;;3.79;100.00
5574;BME280;2563;52.242;7.956;2024-02-26T06:22:41;99060.88;;;3.80;100.00
5574;BME280;2563;52.242;7.956;2024-02-26T06:25:07;99076.22;;;3.77;100.00
5574;BME280;2563;52.242;7.956;2024-02-26T06:27:32;99083.84;;;3.78;100.00
5574;BME280;2563;52.242;7.956;2024-02-26T06:29:58;99080.41;;;3.79;100.00
5574;BME280;2563;52.242;7.956;2024-02-26T06:32:23;99100.66;;;3.86;100.00
5574;BME280;2563;52.242;7.956;2024-02-26T06:34:48;99118.50;;;3.84;100.00
5574;BME280;2563;52.242;7.956;2024-02-26T06:37:14;99132.88;;;3.85;100.00
5574;BME280;2563;52.242;7.956;2024-02-26T06:39:39;99132.03;;;3.86;100.00
5574;BME280;2563;52.242;7.956;2024-02-26T06:42:06;99139.66;;;3.86;100.00
5574;BME280;2563;52.242;7.956;2024-02-26T06:44:31;99149.84;;;3.86;100.00
5574;BME280;2563;52.242;7.956;2024-02-26T06:47:00;99155.75;;;3.88;100.00
5574;BME280;2563;52.242;7.956;2024-02-26T06:49:26;99159.94;;;3.91;100.00
5574;BME280;2563;52.242;7.956;2024-02-26T06:51:52;99161.59;;;3.93;100.00
5574;BME280;2563;52.242;7.956;2024-02-26T06:54:17;99161.50;;;3.96;100.00
5574;BME280;2563;52.242;7.956;2024-02-26T06:56:43;99168.22;;;4.00;100.00
5574;BME280;2563;52.242;7.956;2024-02-26T06:59:08;99182.63;;;4.01;100.00
5574;BME280;2563;52.242;7.956;2024-02-26T07:01:34;99199.59;;;4.02;100.00
5574;BME280;2563;52.242;7.956;2024-02-26T07:03:59;99210.63;;;4.01;100.00
5574;BME280;2563;52.242;7.956;2024-02-26T07:06:26;99211.44;;;4.03;100.00
5574;BME280;2563;52.242;7.956;2024-02-26T07:08:52;99219.88;;;4.05;100.00
5574;BME280;2563;52.242;7.956;2024-02-26T07:11:17;99218.19;;;4.06;100.00
5574;BME280;2563;52.242;7.956;2024-02-26T07:13:44;99224.06;;;4.10;100.00
5574;BME280;2563;52.242;7.956;2024-02-26T07:16:09;99224.81;;;4.15;100.00
5574;BME280;2563;52.242;7.956;2024-02-26T07:18:35;99239.19;;;4.17;100.00
5574;BME280;2563;52.242;7.956;2024-02-26T07:21:04;99228.13;;;4.18;100.00
5574;BME280;2563;52.242;7.956;2024-02-26T07:23:30;99237.38;;;4.22;100.00
5574;BME280;2563;52.242;7.956;2024-02-26T07:25:55;99290.88;;;4.21;100.00
5574;BME280;2563;52.242;7.956;2024-02-26T07:28:20;99302.75;;;4.22;100.00
5574;BME280;2563;52.242;7.956;2024-02-26T07:30:46;99299.34;;;4.23;100.00
5574;BME280;2563;52.242;7.956;2024-02-26T07:33:11;99312.81;;;4.28;100.00
5574;BME280;2563;52.242;7.956;2024-02-26T07:35:37;99313.63;;;4.30;100.00
5574;BME280;2563;52.242;7.956;2024-02-26T07:38:04;99322.16;;;4.29;100.00
5574;BME280;2563;52.242;7.956;2024-02-26T07:40:29;99322.06;;;4.34;100.00
5574;BME280;2563;52.242;7.956;2024-02-26T07:42:55;99349.06;;;4.42;100.00
5574;BME280;2563;52.242;7.956;2024-02-26T07:45:21;99350.69;;;4.46;100.00
5574;BME280;2563;52.242;7.956;2024-02-26T07:47:47;99356.53;;;4.52;100.00
5574;BME280;2563;52.242;7.956;2024-02-26T07:50:12;99362.44;;;4.54;100.00
5574;BME280;2563;52.242;7.956;2024-02-26T07:52:38;99369.13;;;4.59;100.00
5574;BME280;2563;52.242;7.956;2024-02-26T07:55:04;99381.03;;;4.59;100.00
5574;BME280;2563;52.242;7.956;2024-02-26T07:57:32;99388.63;;;4.62;100.00
5574;BME280;2563;52.242;7.956;2024-02-26T07:59:58;99386.88;;;4.64;100.00
5574;BME280;2563;52.242;7.956;2024-02-26T08:02:24;99396.97;;;4.70;100.00
5574;BME280;2563;52.242;7.956;2024-02-26T08:04:50;99398.69;;;4.69;100.00
5574;BME280;2563;52.242;7.956;2024-02-26T08:07:15;99398.63;;;4.73;100.00
5574;BME280;2563;52.242;7.956;2024-02-26T08:09:40;99407.91;;;4.75;100.00
5574;BME280;2563;52.242;7.956;2024-02-26T08:12:06;99416.34;;;4.79;100.00
5574;BME280;2563;52.242;7.956;2024-02-26T08:14:31;99419.69;;;4.81;100.00
5574;BME280;2563;52.242;7.956;2024-02-26T08:16:58;99426.41;;;4.86;100.00
5574;BME280;2563;52.242;7.956;2024-02-26T08:19:24;99435.66;;;4.90;100.00
5574;BME280;2563;52.242;7.956;2024-02-26T08:21:49;99466.31;;;4.87;100.00
5574;BME280;2563;52.242;7.956;2024-02-26T08:24:14;99469.66;;;4.91;100.00
5574;BME280;2563;52.242;7.956;2024-02-26T08:26:40;99476.34;;;4.97;100.00
5574;BME280;2563;52.242;7.956;2024-02-26T08:29:05;99492.53;;;4.96;100.00
5574;BME280;2563;52.242;7.956;2024-02-26T08:31:30;99494.09;;;5.03;100.00
5574;BME280;2563;52.242;7.956;2024-02-26T08:33:56;99490.75;;;4.99;100.00
5574;BME280;2563;52.242;7.956;2024-02-26T08:36:21;99496.69;;;5.00;100.00
5574;BME280;2563;52.242;7.956;2024-02-26T08:38:47;99508.59;;;4.98;100.00
5574;BME280;2563;52.242;7.956;2024-02-26T08:41:12;99512.78;;;5.02;100.00
5574;BME280;2563;52.242;7.956;2024-02-26T08:43:38;99511.06;;;5.04;100.00
5574;BME280;2563;52.242;7.956;2024-02-26T08:46:03;99519.63;;;5.01;100.00
5574;BME280;2563;52.242;7.956;2024-02-26T08:48:29;99520.44;;;5.02;100.00
5574;BME280;2563;52.242;7.956;2024-02-26T08:50:54;99522.09;;;5.06;100.00
5574;BME280;2563;52.242;7.956;2024-02-26T08:53:20;99523.88;;;5.01;100.00
5574;BME280;2563;52.242;7.956;2024-02-26T08:55:45;99531.53;;;5.01;100.00
5574;BME280;2563;52.242;7.956;2024-02-26T08:58:11;99534.00;;;5.04;100.00
5574;BME280;2563;52.242;7.956;2024-02-26T09:00:36;99536.59;;;5.02;100.00
5574;BME280;2563;52.242;7.956;2024-02-26T09:03:02;99541.59;;;5.07;100.00
5574;BME280;2563;52.242;7.956;2024-02-26T09:05:27;99539.88;;;5.09;100.00
5574;BME280;2563;52.242;7.956;2024-02-26T09:07:53;99550.88;;;5.11;100.00
5574;BME280;2563;52.242;7.956;2024-02-26T09:10:19;99547.53;;;5.09;100.00
5574;BME280;2563;52.242;7.956;2024-02-26T09:12:44;99551.66;;;5.16;100.00
5574;BME280;2563;52.242;7.956;2024-02-26T09:15:09;99546.47;;;5.21;100.00
5574;BME280;2563;52.242;7.956;2024-02-26T09:17:35;99547.19;;;5.27;100.00
5574;BME280;2563;52.242;7.956;2024-02-26T09:20:02;99557.47;;;5.24;100.00
5574;BME280;2563;52.242;7.956;2024-02-26T09:22:28;99562.59;;;5.23;100.00
5574;BME280;2563;52.242;7.956;2024-02-26T09:24:53;99560.94;;;5.20;100.00
5574;BME280;2563;52.242;7.956;2024-02-26T09:27:18;99564.16;;;5.28;100.00
5574;BME280;2563;52.242;7.956;2024-02-26T09:29:44;99556.41;;;5.35;100.00
5574;BME280;2563;52.242;7.956;2024-02-26T09:32:09;99562.44;;;5.30;100.00
5574;BME280;2563;52.242;7.956;2024-02-26T09:34:35;99568.34;;;5.32;100.00
5574;BME280;2563;52.242;7.956;2024-02-26T09:37:00;99581.16;;;5.29;100.00
5574;BME280;2563;52.242;7.956;2024-02-26T09:39:26;99577.63;;;5.37;100.00
5574;BME280;2563;52.242;7.956;2024-02-26T09:41:53;99578.44;;;5.39;100.00
5574;BME280;2563;52.242;7.956;2024-02-26T09:44:19;99573.31;;;5.39;100.00
5574;BME280;2563;52.242;7.956;2024-02-26T09:46:48;99579.97;;;5.47;100.00
5574;BME280;2563;52.242;7.956;2024-02-26T09:49:15;99576.66;;;5.44;100.00
5574;BME280;2563;52.242;7.956;2024-02-26T09:51:41;99573.88;;;5.56;100.00
5574;BME280;2563;52.242;7.956;2024-02-26T09:54:09;99574.53;;;5.64;100.00
5574;BME280;2563;52.242;7.956;2024-02-26T09:56:38;99578.84;;;5.62;100.00
5574;BME280;2563;52.242;7.956;2024-02-26T09:59:06;99583.94;;;5.62;100.00
5574;BME280;2563;52.242;7.956;2024-02-26T10:01:36;99590.81;;;5.59;100.00
5574;BME280;2563;52.242;7.956;2024-02-26T10:04:04;99600.03;;;5.66;100.00
5574;BME280;2563;52.242;7.956;2024-02-26T10:06:30;99607.66;;;5.67;100.00
5574;BME280;2563;52.242;7.956;2024-02-26T10:08:56;99625.50;;;5.69;100.00
5574;BME280;2563;52.242;7.956;2024-02-26T10:11:24;99627.16;;;5.71;100.00
5574;BME280;2563;52.242;7.956;2024-02-26T10:13:49;99635.66;;;5.72;100.00
5574;BME280;2563;52.242;7.956;2024-02-26T10:16:16;99641.63;;;5.72;100.00
5574;BME280;2563;52.242;7.956;2024-02-26T10:21:13;99657.63;;;5.81;100.00
5574;BME280;2563;52.242;7.956;2024-02-26T10:23:39;99659.28;;;5.83;100.00
5574;BME280;2563;52.242;7.956;2024-02-26T10:26:04;99660.00;;;5.90;100.00
5574;BME280;2563;52.242;7.956;2024-02-26T10:28:30;99673.75;;;5.83;100.00
5574;BME280;2563;52.242;7.956;2024-02-26T10:30:55;99676.22;;;5.87;100.00
5574;BME280;2563;52.242;7.956;2024-02-26T10:33:22;99693.22;;;5.90;100.00
5574;BME280;2563;52.242;7.956;2024-02-26T10:35:47;99698.28;;;5.91;100.00
5574;BME280;2563;52.242;7.956;2024-02-26T10:38:13;99709.22;;;6.01;100.00
5574;BME280;2563;52.242;7.956;2024-02-26T10:40:38;99697.84;;;6.16;100.00
5574;BME280;2563;52.242;7.956;2024-02-26T10:43:04;99713.22;;;6.13;100.00
5574;BME280;2563;52.242;7.956;2024-02-26T10:45:29;99720.84;;;6.14;100.00
5574;BME280;2563;52.242;7.956;2024-02-26T10:47:54;99715.69;;;6.17;100.00
5574;BME280;2563;52.242;7.956;2024-02-26T10:50:21;99734.63;;;6.07;100.00
5574;BME280;2563;52.242;7.956;2024-02-26T10:52:47;99736.19;;;6.13;100.00
5574;BME280;2563;52.242;7.956;2024-02-26T10:55:16;99745.44;;;6.20;100.00
5574;BME280;2563;52.242;7.956;2024-02-26T10:57:44;99741.22;;;6.17;100.00
5574;BME280;2563;52.242;7.956;2024-02-26T11:00:11;99748.91;;;6.17;100.00
5574;BME280;2563;52.242;7.956;2024-02-26T11:02:40;99747.25;;;6.15;100.00
5574;BME280;2563;52.242;7.956;2024-02-26T11:05:06;99752.34;;;6.16;100.00
5574;BME280;2563;52.242;7.956;2024-02-26T11:07:36;99753.16;;;6.18;100.00
5574;BME280;2563;52.242;7.956;2024-02-26T11:10:03;99755.63;;;6.22;100.00
5574;BME280;2563;52.242;7.956;2024-02-26T11:12:31;99765.09;;;6.16;100.00
5574;BME280;2563;52.242;7.956;2024-02-26T11:14:57;99762.47;;;6.21;100.00
5574;BME280;2563;52.242;7.956;2024-02-26T11:17:27;99770.97;;;6.22;100.00
5574;BME280;2563;52.242;7.956;2024-02-26T11:19:57;99768.53;;;6.15;100.00
5574;BME280;2563;52.242;7.956;2024-02-26T11:22:24;99763.13;;;6.31;100.00
5574;BME280;2563;52.242;7.956;2024-02-26T11:24:57;99776.91;;;6.24;100.00
5574;BME280;2563;52.242;7.956;2024-02-26T11:27:29;99767.44;;;6.29;100.00
5574;BME280;2563;52.242;7.956;2024-02-26T11:29:57;99766.44;;;6.36;100.00
5574;BME280;2563;52.242;7.956;2024-02-26T11:32:26;99776.72;;;6.33;100.00
5574;BME280;2563;52.242;7.956;2024-02-26T11:34:53;99768.22;;;6.32;100.00
5574;BME280;2563;52.242;7.956;2024-02-26T11:37:19;99775.72;;;6.40;100.00
5574;BME280;2563;52.242;7.956;2024-02-26T11:39:46;99775.56;;;6.49;100.00
5574;BME280;2563;52.242;7.956;2024-02-26T11:42:14;99773.19;;;6.40;100.00
5574;BME280;2563;52.242;7.956;2024-02-26T11:44:40;99772.28;;;6.41;100.00
5574;BME280;2563;52.242;7.956;2024-02-26T11:47:18;99781.34;;;6.57;100.00
5574;BME280;2563;52.242;7.956;2024-02-26T11:49:44;99793.38;;;6.52;100.00
5574;BME280;2563;52.242;7.956;2024-02-26T11:52:10;99792.47;;;6.55;100.00
5574;BME280;2563;52.242;7.956;2024-02-26T11:57:23;99792.41;;;6.58;100.00
5574;BME280;2563;52.242;7.956;2024-02-26T11:59:48;99794.06;;;6.60;100.00
5574;BME280;2563;52.242;7.956;2024-02-26T12:05:21;99794.84;;;6.66;100.00
5574;BME280;2563;52.242;7.956;2024-02-26T12:08:04;99793.75;;;6.76;100.00
5574;BME280;2563;52.242;7.956;2024-02-26T12:13:16;99806.66;;;6.70;100.00
5574;BME280;2563;52.242;7.956;2024-02-26T12:15:54;99819.97;;;6.87;100.00
5574;BME280;2563;52.242;7.956;2024-02-26T12:18:21;99826.97;;;6.77;100.00
5574;BME280;2563;52.242;7.956;2024-02-26T12:20:58;99831.75;;;6.94;100.00
5574;BME280;2563;52.242;7.956;2024-02-26T12:23:24;99833.44;;;6.95;100.00
5574;BME280;2563;52.242;7.956;2024-02-26T12:25:50;99832.53;;;6.96;100.00
5574;BME280;2563;52.242;7.956;2024-02-26T12:28:15;99832.41;;;7.02;100.00
5574;BME280;2563;52.242;7.956;2024-02-26T12:30:41;99836.88;;;6.94;100.00
5574;BME280;2563;52.242;7.956;2024-02-26T12:33:07;99837.81;;;6.89;100.00
5574;BME280;2563;52.242;7.956;2024-02-26T12:35:34;99841.91;;;6.97;100.00
5574;BME280;2563;52.242;7.956;2024-02-26T12:38:00;99852.16;;;6.97;100.00
5574;BME280;2563;52.242;7.956;2024-02-26T12:40:26;99855.53;;;6.98;100.00
5574;BME280;2563;52.242;7.956;2024-02-26T12:42:53;99858.94;;;6.98;100.00
5574;BME280;2563;52.242;7.956;2024-02-26T12:45:20;99857.19;;;7.00;100.00
5574;BME280;2563;52.242;7.956;2024-02-26T12:47:46;99858.09;;;6.98;100.00
5574;BME280;2563;52.242;7.956;2024-02-26T12:50:11;99861.44;;;7.01;100.00
5574;BME280;2563;52.242;7.956;2024-02-26T12:52:44;99863.88;;;7.06;100.00
5574;BME280;2563;52.242;7.956;2024-02-26T12:55:14;99868.09;;;7.09;100.00
5574;BME280;2563;52.242;7.956;2024-02-26T12:57:41;99864.66;;;7.11;100.00
5574;BME280;2563;52.242;7.956;2024-02-26T13:00:12;99871.66;;;7.01;100.00
5574;BME280;2563;52.242;7.956;2024-02-26T13:02:38;99877.56;;;7.05;100.00
5574;BME280;2563;52.242;7.956;2024-02-26T13:05:06;99873.44;;;6.99;100.00
5574;BME280;2563;52.242;7.956;2024-02-26T13:07:32;99874.84;;;7.13;100.00
5574;BME280;2563;52.242;7.956;2024-02-26T13:09:58;99877.56;;;7.07;100.00
5574;BME280;2563;52.242;7.956;2024-02-26T13:12:24;99892.75;;;7.13;100.00
5574;BME280;2563;52.242;7.956;2024-02-26T13:15:02;99888.47;;;7.13;100.00
5574;BME280;2563;52.242;7.956;2024-02-26T13:17:31;99887.44;;;7.22;100.00
5574;BME280;2563;52.242;7.956;2024-02-26T13:19:57;99898.75;;;7.12;100.00
5574;BME280;2563;52.242;7.956;2024-02-26T13:22:23;99903.88;;;7.12;100.00
5574;BME280;2563;52.242;7.956;2024-02-26T13:24:59;99908.94;;;7.13;100.00
5574;BME280;2563;52.242;7.956;2024-02-26T13:27:25;99903.75;;;7.18;100.00